EST,Max TemperatureF,Mean TemperatureF,Min TemperatureF,Max Dew PointF,MeanDew PointF,Min DewpointF,Max Humidity, Mean Humidity, Min Humidity, Max Sea Level PressureIn, Mean Sea Level PressureIn, Min Sea Level PressureIn, Max VisibilityMiles, Mean VisibilityMiles, Min VisibilityMiles, Max Wind SpeedMPH, Mean Wind SpeedMPH, Max Gust SpeedMPH,PrecipitationIn, CloudCover, Events, WindDirDegrees
2012-12-1,66,55,44,46,42,39,82,65,48,30.21,30.16,30.08,10,9,8,18,7,25,0.00,7,,168
2012-12-2,63,60,56,59,54,47,97,76,55,30.10,30.05,29.99,10,8,4,23,11,31,0.16,8,Rain,216
2012-12-3,71,66,61,59,56,49,97,79,60,30.11,30.06,30.00,10,10,6,23,11,29,0.03,5,Rain,203
2012-12-4,65,51,37,58,49,37,93,75,56,30.24,30.07,30.00,10,8,1,22,8,30,0.09,7,Rain,250
2012-12-5,51,41,31,35,32,28,100,73,46,30.38,30.30,30.24,10,10,8,9,4,13,0.00,0,,57
2012-12-6,50,40,29,43,34,26,89,71,52,30.22,30.07,29.97,10,10,8,10,6,13,0.00,4,,146
2012-12-7,54,51,47,52,49,44,100,93,86,29.96,29.88,29.81,9,2,0,10,3,14,0.10,8,Fog-Rain,139
2012-12-8,52,49,46,52,46,39,100,91,86,30.01,29.91,29.83,10,6,2,10,4,13,T,8,Rain,338
2012-12-9,59,52,44,56,51,42,100,93,86,30.01,29.80,29.69,10,5,0,16,7,25,0.33,8,Fog-Rain,176
2012-12-10,48,39,29,45,32,25,96,87,78,29.99,29.81,29.74,10,8,2,16,9,23,0.00,8,,299
2012-12-11,37,31,24,25,22,19,85,69,52,30.25,30.12,29.99,10,10,9,13,6,18,0.00,4,,259
2012-12-12,45,33,20,26,22,17,91,68,45,30.39,30.34,30.26,10,9,5,9,2,12,0.00,0,,141
2012-12-13,50,35,20,28,22,18,88,60,32,30.42,30.34,30.25,10,10,8,13,4,15,0.00,0,,172
2012-12-14,54,39,23,29,24,20,81,57,32,30.29,30.21,30.12,10,10,8,15,5,20,0.00,0,,192
2012-12-15,56,48,39,52,41,27,89,71,53,30.11,29.88,29.74,10,9,3,22,10,30,0.13,7,Rain,176
2012-12-16,57,46,34,52,45,34,100,86,71,29.74,29.71,29.67,10,8,0,22,8,30,0.00,4,Fog,233
2012-12-17,46,40,34,45,39,33,100,95,89,29.73,29.67,29.57,10,2,0,14,5,17,0.18,8,Fog-Rain,360
2012-12-18,48,42,36,38,34,33,92,76,60,29.87,29.78,29.69,10,7,2,17,8,24,0.01,6,Rain,245
2012-12-19,46,39,32,37,33,28,89,77,65,30.05,29.96,29.83,10,8,5,18,8,25,0.06,4,Rain,109
2012-12-20,57,43,28,50,36,25,92,79,66,29.75,29.44,29.23,10,5,0,35,19,54,0.44,8,Fog-Rain-Snow-Thunderstorm,219
2012-12-21,29,26,22,25,19,15,85,74,63,30.21,29.86,29.60,10,5,0,25,14,39,0.02,7,Fog-Snow,285
2012-12-22,33,22,10,18,15,7,88,68,47,30.30,30.20,30.05,10,10,7,12,4,16,0.00,1,,226
2012-12-23,48,34,20,29,25,16,85,64,42,30.02,29.95,29.91,10,10,10,18,5,24,0.00,0,,241
2012-12-24,40,36,31,38,31,26,100,88,75,30.05,29.86,29.79,10,5,0,14,4,21,0.04,7,Fog-Rain,304
2012-12-25,34,32,30,29,27,23,92,79,66,30.21,30.11,29.99,10,6,2,20,9,26,0.00,8,,17
2012-12-26,33,31,29,29,27,23,92,81,69,30.02,29.75,29.65,10,3,0,28,16,38,0.48,8,Fog-Snow,16
2012-12-27,33,31,29,26,24,22,85,76,66,30.20,30.12,30.00,10,10,8,8,3,14,0.00,8,,301
2012-12-28,33,31,29,28,26,25,85,80,75,30.13,29.98,29.80,10,8,1,10,4,14,0.04,8,Snow,119
2012-12-29,32,28,23,28,25,16,92,80,68,30.29,29.94,29.77,10,3,0,18,9,29,0.20,8,Fog-Snow,308
2012-12-30,31,18,4,21,12,1,92,75,58,30.47,30.39,30.29,10,6,0,15,6,21,0.00,1,Fog,220
2012-12-31,36,31,25,31,28,21,92,78,64,30.28,30.13,30.06,10,4,0,18,7,28,0.12,7,Fog-Snow,228